createdAt,value
2023-04-07T00:00:00.267Z,2.17
2023-04-07T00:03:07.305Z,2.17
2023-04-07T00:06:14.420Z,2.17
2023-04-07T00:09:19.656Z,2.21
2023-04-07T00:12:24.688Z,2.16
2023-04-07T00:15:31.082Z,2.24
2023-04-07T00:18:36.235Z,2.20
2023-04-07T00:21:41.630Z,2.24
2023-04-07T00:24:46.953Z,2.23
2023-04-07T00:27:51.959Z,2.18
2023-04-07T00:30:58.460Z,2.17
2023-04-07T00:34:03.671Z,2.18
2023-04-07T00:37:08.707Z,2.25
2023-04-07T00:40:14.454Z,2.21
2023-04-07T00:43:19.837Z,2.17
2023-04-07T00:46:26.617Z,2.17
2023-04-07T00:49:31.691Z,2.13
2023-04-07T00:52:36.827Z,2.14
2023-04-07T00:55:42.080Z,2.14
2023-04-07T00:58:47.380Z,2.14
2023-04-07T01:02:00.377Z,2.08
2023-04-07T01:05:11.801Z,2.06
2023-04-07T01:08:22.354Z,2.14
2023-04-07T01:11:32.585Z,2.18
2023-04-07T01:14:46.443Z,2.18
2023-04-07T01:18:22.395Z,2.16
2023-04-07T01:21:29.951Z,2.14
2023-04-07T01:24:52.253Z,2.14
2023-04-07T01:28:17.233Z,2.15
2023-04-07T01:31:25.648Z,2.16
2023-04-07T01:34:33.269Z,2.14
2023-04-07T01:37:39.431Z,2.14
2023-04-07T01:40:45.651Z,2.09
2023-04-07T01:43:50.646Z,2.10
2023-04-07T01:46:57.892Z,2.13
2023-04-07T01:50:05.837Z,2.07
2023-04-07T01:53:13.268Z,2.09
2023-04-07T01:56:18.413Z,2.06
2023-04-07T01:59:28.009Z,2.06
2023-04-07T02:02:38.351Z,2.08
2023-04-07T02:05:43.984Z,2.10
2023-04-07T02:08:52.028Z,2.06
2023-04-07T02:11:58.087Z,2.07
2023-04-07T02:15:06.335Z,2.06
2023-04-07T02:18:18.674Z,2.07
2023-04-07T02:21:24.363Z,2.05
2023-04-07T02:24:29.433Z,2.09
2023-04-07T02:27:34.940Z,2.05
2023-04-07T02:30:39.963Z,2.06
2023-04-07T02:33:46.517Z,2.00
2023-04-07T02:36:51.669Z,2.05
2023-04-07T02:39:56.806Z,2.06
2023-04-07T02:43:01.875Z,2.04
2023-04-07T02:46:07.027Z,2.02
2023-04-07T02:49:13.595Z,2.07
2023-04-07T02:52:18.646Z,2.12
2023-04-07T02:55:23.767Z,2.05
2023-04-07T02:58:29.102Z,2.04
2023-04-07T03:01:35.098Z,2.04
2023-04-07T03:04:42.098Z,2.09
2023-04-07T03:07:56.064Z,2.03
2023-04-07T03:11:01.326Z,2.07
2023-04-07T03:14:08.507Z,2.05
2023-04-07T03:17:20.228Z,1.98
2023-04-07T03:20:27.231Z,2.02
2023-04-07T03:23:32.312Z,1.98
2023-04-07T03:26:38.440Z,1.98
2023-04-07T03:29:51.880Z,1.98
2023-04-07T03:32:57.550Z,2.01
2023-04-07T03:36:04.937Z,1.93
2023-04-07T03:39:10.490Z,1.95
2023-04-07T03:42:15.540Z,1.96
2023-04-07T03:45:22.174Z,1.91
2023-04-07T03:48:30.110Z,1.95
2023-04-07T03:51:47.961Z,1.94
2023-04-07T03:54:55.717Z,1.93
2023-04-07T03:58:06.953Z,1.94
2023-04-07T04:01:14.491Z,1.95
2023-04-07T04:04:21.965Z,1.98
2023-04-07T04:07:28.980Z,2.01
2023-04-07T04:10:40.744Z,2.03
2023-04-07T04:13:45.844Z,2.00
2023-04-07T04:16:51.046Z,1.92
2023-04-07T04:20:19.098Z,1.98
2023-04-07T04:23:28.744Z,1.98
2023-04-07T04:26:35.825Z,1.96
2023-04-07T04:29:48.902Z,1.98
2023-04-07T04:32:57.238Z,1.98
2023-04-07T04:36:26.325Z,2.07
2023-04-07T04:39:37.910Z,2.04
2023-04-07T04:42:43.831Z,2.00
2023-04-07T04:45:51.060Z,2.02
2023-04-07T04:48:59.803Z,2.03
2023-04-07T04:52:05.098Z,2.10
2023-04-07T04:55:18.355Z,2.12
2023-04-07T04:58:24.528Z,2.08
2023-04-07T05:01:33.561Z,2.12
2023-04-07T05:04:47.120Z,2.07
2023-04-07T05:08:02.528Z,2.16
2023-04-07T05:11:14.440Z,2.20
2023-04-07T05:14:21.931Z,2.17
2023-04-07T05:17:33.054Z,2.13
2023-04-07T05:20:39.853Z,2.08
2023-04-07T05:23:46.665Z,2.09
2023-04-07T05:26:53.574Z,2.18
2023-04-07T05:29:59.103Z,2.13
2023-04-07T05:33:09.041Z,2.16
2023-04-07T05:36:27.801Z,2.09
2023-04-07T05:39:35.196Z,2.21
2023-04-07T05:42:44.482Z,2.26
2023-04-07T05:45:49.978Z,2.16
2023-04-07T05:48:55.847Z,2.27
2023-04-07T05:52:03.528Z,2.21
2023-04-07T05:55:09.954Z,2.19
2023-04-07T05:58:17.653Z,2.30
2023-04-07T06:01:28.101Z,2.26
2023-04-07T06:04:35.407Z,2.34
2023-04-07T06:07:42.809Z,2.29
2023-04-07T06:10:49.080Z,2.26
2023-04-07T06:13:55.680Z,2.34
2023-04-07T06:17:00.849Z,2.32
2023-04-07T06:20:07.022Z,2.38
2023-04-07T06:23:12.154Z,2.36
2023-04-07T06:26:17.677Z,2.35
2023-04-07T06:29:26.460Z,2.45
2023-04-07T06:32:33.524Z,2.41
2023-04-07T06:35:38.723Z,2.45
2023-04-07T06:38:45.209Z,2.45
2023-04-07T06:41:50.291Z,2.48
2023-04-07T06:44:57.247Z,2.45
2023-04-07T06:48:02.463Z,2.49
2023-04-07T06:51:07.706Z,2.57
2023-04-07T06:54:14.095Z,2.56
2023-04-07T06:57:19.105Z,2.47
2023-04-07T07:00:29.087Z,2.56
2023-04-07T07:03:34.556Z,2.56
2023-04-07T07:06:39.594Z,2.50
2023-04-07T07:09:44.768Z,2.50
2023-04-07T07:12:49.944Z,2.69
2023-04-07T07:15:56.762Z,2.73
2023-04-07T07:19:01.863Z,2.68
2023-04-07T07:22:06.950Z,2.64
2023-04-07T07:25:13.019Z,2.75
2023-04-07T07:28:18.579Z,2.71
2023-04-07T07:31:25.117Z,2.60
2023-04-07T07:34:30.182Z,2.69
2023-04-07T07:37:35.812Z,2.74
2023-04-07T07:40:40.948Z,2.75
2023-04-07T07:43:48.311Z,2.80
2023-04-07T07:46:55.075Z,2.77
2023-04-07T07:50:00.711Z,2.88
2023-04-07T07:53:05.981Z,2.80
2023-04-07T07:56:11.022Z,2.90
2023-04-07T07:59:17.766Z,2.98
2023-04-07T08:02:31.387Z,3.00
2023-04-07T08:05:36.547Z,3.00
2023-04-07T08:08:41.578Z,3.03
2023-04-07T08:11:48.389Z,3.06
2023-04-07T08:14:53.447Z,3.11
2023-04-07T08:18:00.292Z,3.17
2023-04-07T08:21:06.681Z,3.18
2023-04-07T08:24:12.669Z,3.26
2023-04-07T08:27:17.761Z,3.18
2023-04-07T08:30:23.185Z,3.25
2023-04-07T08:33:29.902Z,3.33
2023-04-07T08:36:34.935Z,3.31
2023-04-07T08:39:40.060Z,3.31
2023-04-07T08:42:50.377Z,3.14
2023-04-07T08:45:57.330Z,3.13
2023-04-07T08:49:04.164Z,3.37
2023-04-07T08:52:10.600Z,3.25
2023-04-07T08:55:15.685Z,3.39
2023-04-07T08:58:21.990Z,3.58
2023-04-07T09:01:27.789Z,3.52
2023-04-07T09:04:34.476Z,3.45
2023-04-07T09:07:43.486Z,3.55
2023-04-07T09:10:48.552Z,3.63
2023-04-07T09:13:53.689Z,3.70
2023-04-07T09:17:00.283Z,3.57
2023-04-07T09:20:07.465Z,3.94
2023-04-07T09:23:30.520Z,3.85
2023-04-07T09:26:35.456Z,3.95
2023-04-07T09:29:42.856Z,3.85
2023-04-07T09:32:48.589Z,4.00
2023-04-07T09:35:56.227Z,4.05
2023-04-07T09:39:10.770Z,4.12
2023-04-07T09:42:16.017Z,3.98
2023-04-07T09:45:34.484Z,4.14
2023-04-07T09:48:41.770Z,3.83
2023-04-07T09:51:57.292Z,4.18
2023-04-07T09:55:02.438Z,4.15
2023-04-07T09:58:07.821Z,4.12
2023-04-07T10:01:14.545Z,3.97
2023-04-07T10:04:19.759Z,3.84
2023-04-07T10:07:27.191Z,4.16
2023-04-07T10:10:32.413Z,4.19
2023-04-07T10:13:39.197Z,4.18
2023-04-07T10:16:44.521Z,4.29
2023-04-07T10:19:50.089Z,4.29
2023-04-07T10:22:57.767Z,4.41
2023-04-07T10:26:03.610Z,4.23
2023-04-07T10:29:11.711Z,4.10
2023-04-07T10:32:17.329Z,4.06
2023-04-07T10:35:23.227Z,4.32
2023-04-07T10:38:29.760Z,4.38
2023-04-07T10:41:36.609Z,4.32
2023-04-07T10:44:50.694Z,4.40
2023-04-07T10:48:12.471Z,3.97
2023-04-07T10:51:18.968Z,4.05
2023-04-07T10:54:29.197Z,4.10
2023-04-07T10:57:34.546Z,4.02
2023-04-07T11:00:39.588Z,4.03
2023-04-07T11:03:56.181Z,4.07
2023-04-07T11:07:01.277Z,4.16
2023-04-07T11:10:19.189Z,3.98
2023-04-07T11:13:24.682Z,4.09
2023-04-07T11:16:38.311Z,4.06
2023-04-07T11:19:53.303Z,3.82
2023-04-07T11:23:01.921Z,3.96
2023-04-07T11:26:08.850Z,4.16
2023-04-07T11:29:13.985Z,3.96
2023-04-07T11:32:26.207Z,3.91
2023-04-07T11:35:31.597Z,3.92
2023-04-07T11:38:38.651Z,3.91
2023-04-07T11:41:49.828Z,3.82
2023-04-07T11:44:54.810Z,3.92
2023-04-07T11:47:59.978Z,3.94
2023-04-07T11:51:06.266Z,4.12
2023-04-07T11:54:13.328Z,4.17
2023-04-07T11:57:28.078Z,4.20
2023-04-07T12:00:33.622Z,3.98
2023-04-07T12:03:39.239Z,4.19
2023-04-07T12:06:44.602Z,4.21
2023-04-07T12:09:49.659Z,4.14
2023-04-07T12:12:58.237Z,4.20
2023-04-07T12:16:05.029Z,4.12
2023-04-07T12:19:10.150Z,4.34
2023-04-07T12:22:15.268Z,4.39
2023-04-07T12:25:20.639Z,4.31
2023-04-07T12:28:27.742Z,4.42
2023-04-07T12:31:34.133Z,4.63
2023-04-07T12:34:40.009Z,4.32
2023-04-07T12:37:47.755Z,4.53
2023-04-07T12:40:54.820Z,4.60
2023-04-07T12:44:01.230Z,4.77
2023-04-07T12:47:06.486Z,4.94
2023-04-07T12:50:12.312Z,4.63
2023-04-07T12:53:17.424Z,4.72
2023-04-07T12:56:23.087Z,5.00
2023-04-07T12:59:30.709Z,4.89
2023-04-07T13:02:37.959Z,5.06
2023-04-07T13:05:43.148Z,5.29
2023-04-07T13:08:48.221Z,5.04
2023-04-07T13:11:53.252Z,5.10
2023-04-07T13:15:00.668Z,4.83
2023-04-07T13:18:06.229Z,5.18
2023-04-07T13:21:42.679Z,5.10
2023-04-07T13:24:37.815Z,5.20
2023-04-07T13:27:43.050Z,5.07
2023-04-07T13:30:49.576Z,5.13
2023-04-07T13:33:54.638Z,5.19
2023-04-07T13:36:59.671Z,4.99
2023-04-07T13:40:05.044Z,4.99
2023-04-07T13:43:11.687Z,4.90
2023-04-07T13:46:27.765Z,5.05
2023-04-07T13:49:33.331Z,4.95
2023-04-07T13:52:38.464Z,5.00
2023-04-07T13:55:43.474Z,5.10
2023-04-07T13:58:49.640Z,4.91
2023-04-07T14:01:56.362Z,5.02
2023-04-07T14:05:01.506Z,4.93
2023-04-07T14:08:06.662Z,5.11
2023-04-07T14:11:12.122Z,5.21
2023-04-07T14:14:17.185Z,5.23
2023-04-07T14:17:24.029Z,5.13
2023-04-07T14:20:36.709Z,5.07
2023-04-07T14:23:42.338Z,5.07
2023-04-07T14:26:48.136Z,5.13
2023-04-07T14:29:54.226Z,5.14
2023-04-07T14:33:01.446Z,5.24
2023-04-07T14:36:08.379Z,5.22
2023-04-07T14:39:14.760Z,5.20
2023-04-07T14:42:19.886Z,5.16
2023-04-07T14:45:24.912Z,5.37
2023-04-07T14:48:31.329Z,5.40
2023-04-07T14:51:38.436Z,5.46
2023-04-07T14:54:43.533Z,5.44
2023-04-07T14:57:48.589Z,5.31
2023-04-07T15:00:53.580Z,5.38
2023-04-07T15:04:01.036Z,5.28
2023-04-07T15:07:06.362Z,5.25
2023-04-07T15:10:12.737Z,5.30
2023-04-07T15:13:17.754Z,5.36
2023-04-07T15:16:22.814Z,5.27
2023-04-07T15:19:29.332Z,5.28
2023-04-07T15:22:34.500Z,5.32
2023-04-07T15:25:39.781Z,5.39
2023-04-07T15:28:44.893Z,5.29
2023-04-07T15:31:50.062Z,5.45
2023-04-07T15:34:56.481Z,5.27
2023-04-07T15:38:01.658Z,5.27
2023-04-07T15:41:06.868Z,5.17
2023-04-07T15:44:19.764Z,5.22
2023-04-07T15:47:25.085Z,5.20
2023-04-07T15:50:31.794Z,5.17
2023-04-07T15:53:37.034Z,5.19
2023-04-07T15:56:42.105Z,5.16
2023-04-07T15:59:47.347Z,5.24
2023-04-07T16:02:52.537Z,5.16
2023-04-07T16:05:59.033Z,5.09
2023-04-07T16:09:04.933Z,5.13
2023-04-07T16:12:14.380Z,5.04
2023-04-07T16:15:32.410Z,5.07
2023-04-07T16:18:41.660Z,5.02
2023-04-07T16:21:48.173Z,5.03
2023-04-07T16:24:53.438Z,5.02
2023-04-07T16:27:58.531Z,5.01
2023-04-07T16:31:06.036Z,4.98
2023-04-07T16:34:11.163Z,4.97
2023-04-07T16:37:17.574Z,4.95
2023-04-07T16:40:22.704Z,4.98
2023-04-07T16:43:28.116Z,4.96
2023-04-07T16:46:33.350Z,4.97
2023-04-07T16:49:41.358Z,4.92
2023-04-07T16:52:48.011Z,4.91
2023-04-07T16:55:56.227Z,4.80
2023-04-07T16:59:03.371Z,4.79
2023-04-07T17:02:11.366Z,4.80
2023-04-07T17:05:17.356Z,4.74
2023-04-07T17:08:25.801Z,4.75
2023-04-07T17:11:31.042Z,4.72
2023-04-07T17:14:36.505Z,4.68
2023-04-07T17:17:41.563Z,4.65
2023-04-07T17:20:46.970Z,4.62
2023-04-07T17:23:56.354Z,4.58
2023-04-07T17:27:04.776Z,4.56
2023-04-07T17:30:10.868Z,4.50
2023-04-07T17:33:16.359Z,4.49
2023-04-07T17:36:21.721Z,4.38
2023-04-07T17:39:28.189Z,4.47
2023-04-07T17:42:33.671Z,4.43
2023-04-07T17:45:38.767Z,4.44
2023-04-07T17:48:44.940Z,4.39
2023-04-07T17:51:50.061Z,4.37
2023-04-07T17:54:56.603Z,4.36
2023-04-07T17:58:03.922Z,4.34
2023-04-07T18:01:10.813Z,4.32
2023-04-07T18:04:17.053Z,4.28
2023-04-07T18:07:22.477Z,4.28
2023-04-07T18:10:29.170Z,4.27
2023-04-07T18:13:35.030Z,4.23
2023-04-07T18:16:40.513Z,4.20
2023-04-07T18:19:45.686Z,4.17
2023-04-07T18:22:52.942Z,4.16
2023-04-07T18:26:01.925Z,4.07
2023-04-07T18:29:10.089Z,4.11
2023-04-07T18:32:15.369Z,4.07
2023-04-07T18:35:21.924Z,4.06
2023-04-07T18:38:28.156Z,4.05
2023-04-07T18:41:35.026Z,4.02
2023-04-07T18:44:40.057Z,4.01
2023-04-07T18:47:45.242Z,3.98
2023-04-07T18:50:56.975Z,4.02
2023-04-07T18:54:02.366Z,3.97
2023-04-07T18:57:09.481Z,3.98
2023-04-07T19:00:14.728Z,3.92
2023-04-07T19:03:20.322Z,3.96
2023-04-07T19:06:28.305Z,3.89
2023-04-07T19:09:33.311Z,3.89
2023-04-07T19:12:40.146Z,3.92
2023-04-07T19:15:46.453Z,3.92
2023-04-07T19:18:53.282Z,3.90
2023-04-07T19:21:58.361Z,3.90
2023-04-07T19:25:03.108Z,3.87
2023-04-07T19:28:09.961Z,3.85
2023-04-07T19:31:15.040Z,3.90
2023-04-07T19:34:21.130Z,3.85
2023-04-07T19:37:26.404Z,3.82
2023-04-07T19:40:31.656Z,3.83
2023-04-07T19:43:41.376Z,3.83
2023-04-07T19:46:46.919Z,3.77
2023-04-07T19:49:52.025Z,3.80
2023-04-07T19:52:57.224Z,3.75
2023-04-07T19:56:04.944Z,3.76
2023-04-07T19:59:15.037Z,3.73
2023-04-07T20:02:22.165Z,3.75
2023-04-07T20:05:27.682Z,3.70
2023-04-07T20:08:33.063Z,3.75
2023-04-07T20:11:38.455Z,3.69
2023-04-07T20:14:45.123Z,3.71
2023-04-07T20:17:51.874Z,3.69
2023-04-07T20:21:00.970Z,3.70
2023-04-07T20:24:06.409Z,3.70
2023-04-07T20:27:14.667Z,3.65
2023-04-07T20:30:21.258Z,3.58
2023-04-07T20:33:26.587Z,3.62
2023-04-07T20:36:32.024Z,3.59
2023-04-07T20:39:37.140Z,3.66
2023-04-07T20:42:42.245Z,3.65
2023-04-07T20:45:48.766Z,3.67
2023-04-07T20:48:54.040Z,3.67
2023-04-07T20:51:59.192Z,3.64
2023-04-07T20:55:04.281Z,3.63
2023-04-07T20:58:10.573Z,3.60
2023-04-07T21:01:17.138Z,3.60
2023-04-07T21:04:24.472Z,3.60
2023-04-07T21:07:29.804Z,3.56
2023-04-07T21:10:34.973Z,3.52
2023-04-07T21:13:40.013Z,3.56
2023-04-07T21:16:46.429Z,3.54
2023-04-07T21:19:51.516Z,3.55
2023-04-07T21:22:56.516Z,3.56
2023-04-07T21:26:05.136Z,3.55
2023-04-07T21:29:11.285Z,3.56
2023-04-07T21:32:17.766Z,3.54
2023-04-07T21:35:23.478Z,3.51
2023-04-07T21:38:28.676Z,3.55
2023-04-07T21:41:33.773Z,3.52
2023-04-07T21:44:39.080Z,3.53
2023-04-07T21:47:45.485Z,3.51
2023-04-07T21:50:51.906Z,3.55
2023-04-07T21:53:56.911Z,3.55
2023-04-07T21:57:02.411Z,3.55
2023-04-07T22:00:08.722Z,3.55
2023-04-07T22:03:21.029Z,3.53
2023-04-07T22:06:26.799Z,3.53
2023-04-07T22:09:31.948Z,3.53
2023-04-07T22:12:37.671Z,3.54
2023-04-07T22:15:43.482Z,3.50
2023-04-07T22:18:50.439Z,3.56
2023-04-07T22:21:56.513Z,3.54
2023-04-07T22:25:01.874Z,3.54
2023-04-07T22:28:07.163Z,3.50
2023-04-07T22:31:12.281Z,3.50
2023-04-07T22:34:19.255Z,3.50
2023-04-07T22:37:24.747Z,3.49
2023-04-07T22:40:29.884Z,3.49
2023-04-07T22:43:35.007Z,3.48
2023-04-07T22:46:40.452Z,3.46
2023-04-07T22:49:46.615Z,3.49
2023-04-07T22:52:51.661Z,3.49
2023-04-07T22:55:57.129Z,3.47
2023-04-07T22:59:05.649Z,3.50
2023-04-07T23:02:11.051Z,3.54
2023-04-07T23:05:17.865Z,3.51
2023-04-07T23:08:22.994Z,3.53
2023-04-07T23:11:28.072Z,3.50
2023-04-07T23:14:33.335Z,3.45
2023-04-07T23:17:38.443Z,3.51
2023-04-07T23:20:52.244Z,3.51
2023-04-07T23:23:57.359Z,3.47
2023-04-07T23:27:02.774Z,3.54
2023-04-07T23:30:09.160Z,3.56
2023-04-07T23:33:15.200Z,3.50
2023-04-07T23:36:22.017Z,3.51
2023-04-07T23:39:27.912Z,3.53
2023-04-07T23:42:32.973Z,3.56
2023-04-07T23:45:38.207Z,3.58
2023-04-07T23:48:43.550Z,3.62
2023-04-07T23:51:49.977Z,3.67
2023-04-07T23:54:55.177Z,3.61
2023-04-07T23:58:00.149Z,3.65
